Time;durP1;ratioP1;P1;durP2;ratioP2;P2;SDS_P1;SDS_P2;PMS_P1;PMS_P2;Temp;Humidity;BMP_temperature;BMP_pressure;BME280_temperature;BME280_humidity;BME280_pressure;Samples;Min_cycle;Max_cycle;Signal;HPM_P1;HPM_P2
2021/10/02 00:35:49;;;;;;;8.50;5.18;;;11.10;99.90;;;;;;5006169;28;20040;-67
2021/10/02 00:41:21;;;;;;;13.07;5.07;;;11.00;99.90;;;;;;5006690;28;20034;-68
2021/10/02 00:46:33;;;;;;;8.13;4.80;;;11.00;99.90;;;;;;5005324;28;20774;-67
2021/10/02 00:49:01;;;;;;;9.85;4.95;;;11.00;99.90;;;;;;5006911;28;20108;-68
2021/10/02 00:51:28;;;;;;;9.82;4.78;;;10.90;99.90;;;;;;5006631;28;20053;-68
2021/10/02 00:53:55;;;;;;;10.70;5.75;;;11.00;99.90;;;;;;5005455;28;20144;-68
2021/10/02 00:56:22;;;;;;;11.15;5.72;;;10.90;99.90;;;;;;5005512;28;20111;-68
2021/10/02 00:58:51;;;;;;;10.43;5.07;;;10.80;99.90;;;;;;5006305;28;20056;-68
2021/10/02 01:01:25;;;;;;;7.55;4.57;;;10.70;99.90;;;;;;5006445;28;20768;-68
2021/10/02 01:04:04;;;;;;;8.88;5.75;;;10.80;99.90;;;;;;5006030;28;20104;-67
2021/10/02 01:06:46;;;;;;;8.95;6.10;;;10.70;99.90;;;;;;5004852;28;20577;-68
2021/10/02 01:09:39;;;;;;;11.02;5.32;;;10.70;99.90;;;;;;5006421;28;20490;-68
2021/10/02 01:12:15;;;;;;;12.82;6.10;;;10.80;99.90;;;;;;5002534;28;20045;-68
2021/10/02 01:14:49;;;;;;;10.43;5.40;;;10.70;99.90;;;;;;5010047;28;20081;-67
2021/10/02 01:17:22;;;;;;;11.00;5.68;;;10.70;99.90;;;;;;5008633;28;20799;-68
2021/10/02 01:20:01;;;;;;;12.63;6.22;;;10.50;99.90;;;;;;5009955;28;20046;-68
2021/10/02 01:22:55;;;;;;;12.30;6.40;;;10.60;99.90;;;;;;5009689;28;20053;-68
2021/10/02 01:25:43;;;;;;;16.65;6.55;;;10.60;99.90;;;;;;5009405;28;21293;-68
2021/10/02 01:28:15;;;;;;;13.45;6.07;;;10.50;99.90;;;;;;5010433;28;20347;-67
2021/10/02 01:33:33;;;;;;;10.07;5.75;;;10.50;99.90;;;;;;5007013;28;20132;-67
2021/10/02 01:36:17;;;;;;;11.30;6.13;;;10.50;99.90;;;;;;5008685;28;20316;-68
2021/10/02 01:47:15;;;;;;;10.43;5.45;;;10.80;99.90;;;;;;5008128;28;20114;-68
2021/10/02 01:49:45;;;;;;;8.38;4.57;;;10.80;99.90;;;;;;5009080;28;20422;-68
2021/10/02 01:52:15;;;;;;;8.98;5.20;;;10.80;99.90;;;;;;5008704;28;20045;-67
2021/10/02 01:54:44;;;;;;;9.95;5.40;;;10.80;99.90;;;;;;5009980;28;20487;-67
2021/10/02 01:57:12;;;;;;;9.90;5.25;;;10.80;99.90;;;;;;5008667;28;20471;-68
2021/10/02 01:59:42;;;;;;;9.02;4.85;;;10.90;99.90;;;;;;5009151;28;20041;-68
2021/10/02 02:02:10;;;;;;;12.65;5.80;;;10.90;99.90;;;;;;5010063;28;20912;-68
2021/10/02 02:04:40;;;;;;;8.98;4.82;;;11.00;99.90;;;;;;5010313;28;20076;-67
2021/10/02 02:07:07;;;;;;;8.13;4.93;;;11.00;99.90;;;;;;5009215;28;20050;-68
2021/10/02 02:09:39;;;;;;;12.77;5.55;;;11.00;99.90;;;;;;5009869;28;20131;-68
2021/10/02 02:12:08;;;;;;;10.20;5.28;;;10.90;99.90;;;;;;5009126;28;20104;-68
2021/10/02 02:14:37;;;;;;;10.35;5.25;;;10.90;99.90;;;;;;5010313;28;20522;-68
2021/10/02 02:17:07;;;;;;;9.38;5.30;;;11.00;99.90;;;;;;5009473;28;20080;-67
2021/10/02 02:19:35;;;;;;;10.23;4.63;;;10.90;99.90;;;;;;5012060;28;20135;-68
2021/10/02 02:22:03;;;;;;;8.23;4.60;;;11.00;99.90;;;;;;5010697;28;20050;-68
2021/10/02 02:24:32;;;;;;;9.68;4.82;;;10.90;99.90;;;;;;5009449;28;20556;-68
2021/10/02 02:26:59;;;;;;;8.90;5.07;;;10.80;99.90;;;;;;5008614;28;20077;-68
2021/10/02 02:29:27;;;;;;;11.23;5.25;;;10.80;99.90;;;;;;5009250;28;20568;-68
2021/10/02 02:31:55;;;;;;;11.93;4.82;;;10.80;99.90;;;;;;5010159;28;20053;-67
2021/10/02 02:34:24;;;;;;;8.35;5.28;;;10.80;99.90;;;;;;5008803;28;20073;-68
2021/10/02 02:36:51;;;;;;;9.98;4.90;;;10.80;99.90;;;;;;5008221;28;20544;-68
2021/10/02 02:39:18;;;;;;;10.65;4.72;;;10.70;99.90;;;;;;5008881;28;20560;-67
2021/10/02 02:41:45;;;;;;;10.80;5.53;;;10.70;99.90;;;;;;5008240;28;20153;-68
2021/10/02 02:44:12;;;;;;;9.85;4.72;;;10.60;99.90;;;;;;5008760;28;20045;-68
2021/10/02 02:46:41;;;;;;;7.97;4.95;;;10.70;99.90;;;;;;5008067;28;21049;-68
2021/10/02 02:49:14;;;;;;;11.05;5.55;;;10.60;99.90;;;;;;5010338;28;20041;-68
2021/10/02 02:51:56;;;;;;;10.77;5.60;;;10.60;99.90;;;;;;5009108;28;20076;-68
2021/10/02 02:54:28;;;;;;;8.55;5.13;;;10.70;99.90;;;;;;5007564;28;20556;-68
2021/10/02 02:57:00;;;;;;;11.52;6.15;;;10.70;99.90;;;;;;5007479;28;20095;-67
2021/10/02 02:59:31;;;;;;;7.32;5.00;;;10.80;99.90;;;;;;5009130;28;20135;-68
2021/10/02 03:02:01;;;;;;;8.80;4.90;;;10.70;99.90;;;;;;5009117;28;20088;-67
2021/10/02 03:04:31;;;;;;;11.05;5.47;;;10.70;99.90;;;;;;5008555;28;20073;-68
2021/10/02 03:07:02;;;;;;;10.65;5.03;;;10.80;99.90;;;;;;5007417;28;20045;-68
2021/10/02 03:09:33;;;;;;;12.15;5.78;;;10.80;99.90;;;;;;5007820;28;20150;-68
2021/10/02 03:12:02;;;;;;;10.98;5.88;;;10.80;99.90;;;;;;5007949;28;20631;-68
2021/10/02 03:14:31;;;;;;;8.50;5.03;;;10.80;99.90;;;;;;5007585;28;20131;-68
2021/10/02 03:17:00;;;;;;;15.15;5.68;;;10.90;99.90;;;;;;5005637;28;20142;-67
2021/10/02 03:19:29;;;;;;;9.02;4.85;;;10.90;99.90;;;;;;5006262;28;20085;-67
2021/10/02 03:21:56;;;;;;;8.75;5.60;;;10.90;99.90;;;;;;5007278;28;20057;-68
2021/10/02 03:24:25;;;;;;;11.82;5.80;;;10.80;99.90;;;;;;5007990;28;20108;-67
2021/10/02 03:26:54;;;;;;;8.20;4.80;;;10.80;99.90;;;;;;5006727;28;20049;-67
2021/10/02 03:29:21;;;;;;;9.98;5.38;;;10.90;99.90;;;;;;5007876;28;20096;-67
2021/10/02 03:31:49;;;;;;;9.38;5.20;;;11.00;99.90;;;;;;5007646;28;20141;-67
2021/10/02 03:34:16;;;;;;;11.52;6.15;;;11.00;99.90;;;;;;5006100;28;20119;-68
2021/10/02 03:36:43;;;;;;;11.27;5.30;;;11.10;99.90;;;;;;5007005;28;20049;-68
2021/10/02 03:39:10;;;;;;;10.90;5.20;;;11.10;99.90;;;;;;5008349;28;20710;-67
2021/10/02 03:41:39;;;;;;;11.98;5.10;;;11.10;99.90;;;;;;5007623;28;20093;-67
2021/10/02 03:44:06;;;;;;;11.60;5.18;;;11.00;99.90;;;;;;5008771;28;20088;-68
2021/10/02 03:46:33;;;;;;;11.10;5.20;;;10.90;99.90;;;;;;5008443;28;20041;-68
2021/10/02 03:49:00;;;;;;;11.13;5.45;;;10.80;99.90;;;;;;5006418;28;20049;-68
2021/10/02 03:51:27;;;;;;;10.98;5.18;;;10.80;99.90;;;;;;5007022;28;20049;-67
2021/10/02 03:53:54;;;;;;;11.18;5.82;;;10.90;99.90;;;;;;5007135;28;20096;-67
2021/10/02 03:56:21;;;;;;;9.32;4.90;;;10.80;99.90;;;;;;5006721;28;20474;-68
2021/10/02 03:58:50;;;;;;;10.85;5.50;;;10.90;99.90;;;;;;5007943;28;20343;-68
2021/10/02 04:01:17;;;;;;;10.45;5.47;;;10.90;99.90;;;;;;5008027;28;20104;-68
2021/10/02 04:03:43;;;;;;;9.30;4.95;;;10.90;99.90;;;;;;5007844;28;20050;-68
2021/10/02 04:06:12;;;;;;;8.75;4.88;;;10.90;99.90;;;;;;5009083;28;20072;-68
2021/10/02 04:08:39;;;;;;;7.93;5.00;;;10.80;99.90;;;;;;5007368;28;20049;-68
2021/10/02 04:11:07;;;;;;;9.23;5.22;;;10.80;99.90;;;;;;5007405;28;20134;-67
2021/10/02 04:13:34;;;;;;;10.40;5.03;;;10.80;99.90;;;;;;5008089;28;20049;-68
2021/10/02 04:16:02;;;;;;;10.93;4.80;;;10.80;99.90;;;;;;5008462;28;20100;-68
2021/10/02 04:18:29;;;;;;;9.27;5.15;;;10.90;99.90;;;;;;5008638;28;20050;-67
2021/10/02 04:20:56;;;;;;;7.53;4.72;;;10.90;99.90;;;;;;5006970;28;20418;-67
2021/10/02 04:23:23;;;;;;;8.90;5.28;;;10.90;99.90;;;;;;5006745;28;20631;-67
2021/10/02 04:25:50;;;;;;;8.80;4.45;;;10.90;99.90;;;;;;5006630;28;20586;-67
2021/10/02 04:28:17;;;;;;;11.75;5.25;;;10.90;99.90;;;;;;5006946;28;20103;-68
2021/10/02 04:30:44;;;;;;;9.93;5.38;;;10.90;99.90;;;;;;5007219;28;20057;-67
2021/10/02 04:33:12;;;;;;;10.32;5.60;;;11.00;99.90;;;;;;5006901;28;20131;-67
2021/10/02 04:35:39;;;;;;;10.25;4.93;;;11.00;99.90;;;;;;5009381;28;20060;-68
2021/10/02 04:38:06;;;;;;;11.90;5.45;;;10.90;99.90;;;;;;5009673;28;20088;-68
2021/10/02 04:40:33;;;;;;;9.50;4.93;;;10.90;99.90;;;;;;5010374;28;20143;-68
2021/10/02 04:43:01;;;;;;;12.82;5.60;;;10.90;99.90;;;;;;5007825;28;20080;-68
2021/10/02 04:45:28;;;;;;;11.00;4.78;;;11.00;99.90;;;;;;5007406;28;20448;-68
2021/10/02 04:47:55;;;;;;;11.70;5.40;;;11.00;99.90;;;;;;5013722;28;20615;-68
2021/10/02 04:50:24;;;;;;;9.25;5.03;;;11.00;99.90;;;;;;5014105;28;20143;-67
2021/10/02 04:52:54;;;;;;;9.65;5.00;;;11.10;99.90;;;;;;5010644;28;20141;-68
2021/10/02 04:55:21;;;;;;;9.10;4.97;;;11.20;99.90;;;;;;5011427;28;20045;-67
2021/10/02 04:57:48;;;;;;;11.38;5.10;;;11.20;99.90;;;;;;5010834;28;20131;-67
2021/10/02 05:00:15;;;;;;;11.35;5.45;;;11.20;99.90;;;;;;5010911;28;20184;-68
2021/10/02 05:02:43;;;;;;;13.18;5.80;;;11.20;99.90;;;;;;5012040;28;21361;-67
2021/10/02 05:05:10;;;;;;;10.63;4.88;;;11.30;99.90;;;;;;5013010;28;20081;-68
2021/10/02 05:07:38;;;;;;;10.57;5.40;;;11.30;99.90;;;;;;5014755;28;20089;-68
2021/10/02 05:10:06;;;;;;;13.23;5.93;;;11.30;99.90;;;;;;5015462;28;20103;-68
2021/10/02 05:12:32;;;;;;;9.38;4.85;;;11.30;99.90;;;;;;5015579;28;20049;-67
2021/10/02 05:14:59;;;;;;;9.77;4.38;;;11.30;99.90;;;;;;5015109;28;20081;-68
2021/10/02 05:17:26;;;;;;;10.93;5.43;;;11.30;99.90;;;;;;5014656;28;20097;-68
2021/10/02 05:19:53;;;;;;;12.30;5.53;;;11.30;99.90;;;;;;5015868;28;20045;-68
2021/10/02 05:22:21;;;;;;;10.90;5.53;;;11.30;99.90;;;;;;5016400;28;20100;-67
2021/10/02 05:24:49;;;;;;;14.65;5.43;;;11.40;99.90;;;;;;5015905;28;20084;-67
2021/10/02 05:27:16;;;;;;;10.30;5.43;;;11.30;99.90;;;;;;5015578;28;20137;-68
2021/10/02 05:29:45;;;;;;;10.10;5.28;;;11.30;99.90;;;;;;5015523;28;20080;-67
2021/10/02 05:32:13;;;;;;;15.82;5.15;;;11.30;99.90;;;;;;5014714;28;20553;-67
2021/10/02 05:34:40;;;;;;;10.88;5.45;;;11.30;99.90;;;;;;5015388;28;20124;-67
2021/10/02 05:37:07;;;;;;;13.30;5.80;;;11.30;99.90;;;;;;5015784;28;20506;-67
2021/10/02 05:39:35;;;;;;;7.70;5.20;;;11.40;99.90;;;;;;5014409;28;20713;-67
2021/10/02 05:42:03;;;;;;;17.63;5.72;;;11.50;99.90;;;;;;5014924;28;20081;-68
2021/10/02 05:44:33;;;;;;;11.63;5.70;;;11.50;99.90;;;;;;5014843;28;20085;-68
2021/10/02 05:47:00;;;;;;;10.20;5.95;;;11.40;99.90;;;;;;5014463;28;20088;-67
2021/10/02 05:49:27;;;;;;;10.40;5.47;;;11.40;99.90;;;;;;5015292;28;20494;-67
2021/10/02 05:51:53;;;;;;;13.98;7.25;;;11.50;99.90;;;;;;5014324;28;20085;-68
2021/10/02 05:54:20;;;;;;;11.77;5.43;;;11.50;99.90;;;;;;5014667;28;20076;-67
2021/10/02 05:56:48;;;;;;;13.55;5.93;;;11.40;99.90;;;;;;5013196;28;20053;-68
2021/10/02 05:59:16;;;;;;;22.90;6.38;;;11.50;99.90;;;;;;5014197;28;20052;-68
2021/10/02 06:01:43;;;;;;;10.15;5.35;;;11.40;99.90;;;;;;5014632;28;20045;-67
2021/10/02 06:04:10;;;;;;;10.40;5.82;;;11.50;99.90;;;;;;5014445;28;20129;-68
2021/10/02 06:06:37;;;;;;;8.95;5.50;;;11.40;99.90;;;;;;5013840;28;20155;-68
2021/10/02 06:09:04;;;;;;;10.10;5.28;;;11.40;99.90;;;;;;5014618;28;20568;-68
2021/10/02 06:11:31;;;;;;;12.77;6.30;;;11.40;99.90;;;;;;5013785;28;20050;-67
2021/10/02 06:13:58;;;;;;;14.00;5.78;;;11.50;99.90;;;;;;5014539;28;20125;-69
2021/10/02 06:16:27;;;;;;;11.32;5.35;;;11.50;99.90;;;;;;5013401;28;20425;-67
2021/10/02 06:18:54;;;;;;;10.98;5.40;;;11.50;99.90;;;;;;5013655;28;20240;-68
2021/10/02 06:21:21;;;;;;;12.00;6.57;;;11.60;99.90;;;;;;5013647;28;20057;-67
2021/10/02 06:23:48;;;;;;;12.02;5.57;;;11.60;99.90;;;;;;5014497;28;20095;-68
2021/10/02 06:26:15;;;;;;;15.20;6.15;;;11.60;99.90;;;;;;5011328;28;20077;-67
2021/10/02 06:28:42;;;;;;;12.98;6.05;;;11.50;99.90;;;;;;5009421;28;20053;-68
2021/10/02 06:31:09;;;;;;;9.70;5.15;;;11.50;99.90;;;;;;5012925;28;20143;-67
2021/10/02 06:33:37;;;;;;;10.35;5.88;;;11.60;99.90;;;;;;5010148;28;20049;-67
2021/10/02 06:36:04;;;;;;;9.65;5.28;;;11.60;99.90;;;;;;5012322;28;20053;-69
2021/10/02 06:38:32;;;;;;;13.32;5.45;;;11.70;99.90;;;;;;5011892;28;20337;-68
2021/10/02 06:40:59;;;;;;;11.15;5.60;;;11.70;99.90;;;;;;5009004;28;20966;-68
2021/10/02 06:43:26;;;;;;;12.68;5.75;;;11.80;99.90;;;;;;5010163;28;20328;-67
2021/10/02 06:45:53;;;;;;;9.25;5.57;;;11.90;99.90;;;;;;5009230;28;20042;-68
2021/10/02 06:48:20;;;;;;;9.38;5.05;;;12.00;99.90;;;;;;5012300;28;20084;-68
2021/10/02 06:50:48;;;;;;;10.35;4.97;;;12.20;99.90;;;;;;5014055;28;20565;-68
2021/10/02 06:53:15;;;;;;;9.38;4.70;;;12.40;99.90;;;;;;5013209;28;20499;-68
2021/10/02 06:55:42;;;;;;;10.38;5.07;;;12.60;99.90;;;;;;5013123;28;20137;-68
2021/10/02 06:58:09;;;;;;;9.55;4.72;;;12.80;99.90;;;;;;5012938;28;20085;-68
2021/10/02 07:00:36;;;;;;;7.82;4.75;;;13.00;99.90;;;;;;5013071;28;20111;-68
2021/10/02 07:03:04;;;;;;;7.25;4.40;;;13.40;99.90;;;;;;5013168;28;20484;-67
2021/10/02 07:05:31;;;;;;;10.25;4.10;;;13.60;99.90;;;;;;5007623;28;20516;-68
2021/10/02 07:08:00;;;;;;;8.73;4.78;;;13.80;99.90;;;;;;5009989;28;20544;-68
2021/10/02 07:10:27;;;;;;;11.63;4.68;;;13.90;99.90;;;;;;5011054;28;20469;-68
2021/10/02 07:12:55;;;;;;;11.05;4.63;;;14.10;99.90;;;;;;5011421;28;20050;-68
2021/10/02 07:15:23;;;;;;;8.10;4.00;;;14.20;99.90;;;;;;5012082;28;20123;-68
2021/10/02 07:17:50;;;;;;;7.63;3.92;;;14.20;99.90;;;;;;5012659;28;20147;-68
2021/10/02 07:20:17;;;;;;;9.30;4.15;;;14.40;99.90;;;;;;5008208;28;20135;-67
2021/10/02 07:22:44;;;;;;;8.40;4.07;;;14.70;99.90;;;;;;5009842;28;20514;-67
2021/10/02 07:25:15;;;;;;;11.63;4.38;;;14.60;99.90;;;;;;5008226;28;20041;-68
2021/10/02 07:27:42;;;;;;;8.10;3.90;;;14.60;99.90;;;;;;5011234;28;20733;-68
2021/10/02 07:30:11;;;;;;;8.43;4.10;;;15.00;99.90;;;;;;5011287;28;20127;-68
2021/10/02 07:32:39;;;;;;;8.55;3.90;;;15.10;99.90;;;;;;5010885;28;20094;-68
2021/10/02 07:35:06;;;;;;;8.35;4.20;;;15.30;99.90;;;;;;5009373;28;20072;-68
2021/10/02 07:37:33;;;;;;;7.10;3.60;;;15.20;99.90;;;;;;5008616;28;20142;-68
2021/10/02 07:40:00;;;;;;;8.23;3.50;;;15.50;99.90;;;;;;5008735;28;20046;-68
2021/10/02 07:42:30;;;;;;;12.32;4.65;;;15.40;99.90;;;;;;5010946;28;20107;-68
2021/10/02 07:45:02;;;;;;;8.80;3.67;;;15.60;99.90;;;;;;5007702;28;20740;-68
2021/10/02 07:47:32;;;;;;;8.90;3.90;;;15.80;99.90;;;;;;5007917;28;20099;-68
2021/10/02 07:50:01;;;;;;;8.55;3.65;;;15.80;99.90;;;;;;5007216;28;20088;-68
2021/10/02 07:52:28;;;;;;;8.25;3.70;;;16.00;99.90;;;;;;5012010;28;20510;-68
2021/10/02 07:54:56;;;;;;;7.88;3.97;;;16.20;99.90;;;;;;5010867;28;20084;-68
2021/10/02 07:57:22;;;;;;;8.05;3.72;;;16.10;99.90;;;;;;5011778;28;20049;-68
2021/10/02 07:59:51;;;;;;;10.95;3.90;;;15.80;99.90;;;;;;5012290;28;20139;-68
2021/10/02 08:02:20;;;;;;;13.65;4.07;;;15.70;99.90;;;;;;5012104;28;20100;-68
2021/10/02 08:04:47;;;;;;;9.63;3.65;;;15.70;99.90;;;;;;5011729;28;20060;-68
2021/10/02 08:07:14;;;;;;;11.75;4.00;;;15.80;99.90;;;;;;5006166;28;20678;-68
2021/10/02 08:09:42;;;;;;;9.57;4.55;;;16.20;99.90;;;;;;5007316;28;20141;-68
2021/10/02 08:12:10;;;;;;;8.40;3.60;;;16.30;99.90;;;;;;5006000;28;20049;-68
2021/10/02 08:14:38;;;;;;;9.93;4.28;;;17.50;99.90;;;;;;5007473;28;20080;-68
2021/10/02 08:17:08;;;;;;;7.80;3.92;;;17.80;99.90;;;;;;5008093;28;20094;-68
2021/10/02 08:19:37;;;;;;;9.30;3.65;;;17.40;99.90;;;;;;5006791;28;20046;-68
2021/10/02 08:22:05;;;;;;;8.68;3.45;;;17.60;99.90;;;;;;5006341;28;20095;-68
2021/10/02 08:24:33;;;;;;;6.88;3.47;;;19.20;99.90;;;;;;5006851;28;20056;-68
2021/10/02 08:27:00;;;;;;;10.63;3.40;;;21.10;99.90;;;;;;5005988;28;20077;-68
2021/10/02 08:29:28;;;;;;;7.68;3.20;;;21.00;99.90;;;;;;5007195;28;20359;-68
2021/10/02 08:31:55;;;;;;;7.38;3.75;;;22.00;99.90;;;;;;5008172;28;20049;-68
2021/10/02 08:34:24;;;;;;;5.55;3.22;;;21.30;99.90;;;;;;5005902;28;20725;-68
2021/10/02 08:36:51;;;;;;;8.40;3.35;;;20.80;99.90;;;;;;5006424;28;21069;-68
2021/10/02 08:39:18;;;;;;;13.27;3.38;;;20.90;99.90;;;;;;5007666;28;20092;-68
2021/10/02 08:41:46;;;;;;;6.90;3.10;;;21.40;99.90;;;;;;5010296;28;20136;-68
2021/10/02 08:44:17;;;;;;;8.85;3.03;;;21.10;99.90;;;;;;5011919;28;20456;-68
2021/10/02 08:46:46;;;;;;;6.55;2.67;;;20.70;99.90;;;;;;5007911;28;20050;-68
2021/10/02 08:49:33;;;;;;;4.55;2.55;;;21.00;99.90;;;;;;5006140;28;20045;-68
2021/10/02 08:52:02;;;;;;;6.82;2.90;;;20.30;99.90;;;;;;5007685;28;20084;-68
2021/10/02 08:54:29;;;;;;;7.72;2.50;;;20.40;99.90;;;;;;5006857;28;20172;-68
2021/10/02 08:56:57;;;;;;;5.07;2.63;;;21.00;99.90;;;;;;5006700;28;20142;-68
2021/10/02 08:59:24;;;;;;;7.45;2.70;;;22.30;99.90;;;;;;5007217;28;20088;-68
2021/10/02 09:01:51;;;;;;;6.88;3.13;;;23.70;99.90;;;;;;5011525;28;20038;-69
2021/10/02 09:04:18;;;;;;;5.60;2.83;;;24.00;99.10;;;;;;5007330;28;20069;-68
2021/10/02 09:06:47;;;;;;;4.60;2.80;;;24.30;98.40;;;;;;5007009;28;20045;-68
2021/10/02 09:09:16;;;;;;;6.13;2.95;;;23.70;97.80;;;;;;5007884;28;20115;-68
2021/10/02 09:11:43;;;;;;;7.82;3.03;;;23.80;97.90;;;;;;5006525;28;20053;-68
2021/10/02 09:14:11;;;;;;;10.10;3.40;;;23.80;97.90;;;;;;5006240;28;20691;-68
2021/10/02 09:16:40;;;;;;;5.63;2.30;;;23.60;97.90;;;;;;5008158;28;20059;-68
2021/10/02 09:19:09;;;;;;;6.68;2.30;;;23.70;98.30;;;;;;5007546;28;20065;-68
2021/10/02 09:21:42;;;;;;;5.15;2.50;;;22.80;98.40;;;;;;5006902;28;20167;-68
2021/10/02 09:24:23;;;;;;;6.55;2.38;;;21.60;99.90;;;;;;5007428;28;20124;-68
2021/10/02 09:26:50;;;;;;;4.80;2.28;;;21.30;99.90;;;;;;5006395;28;20076;-68
2021/10/02 09:29:18;;;;;;;7.07;2.90;;;21.30;99.90;;;;;;5006708;28;20141;-68
2021/10/02 09:31:45;;;;;;;8.20;2.50;;;21.40;99.90;;;;;;5007128;28;20076;-68
2021/10/02 09:34:23;;;;;;;5.82;2.33;;;22.40;99.90;;;;;;5009048;28;20053;-68
2021/10/02 09:36:50;;;;;;;7.18;2.67;;;23.70;97.90;;;;;;5009145;28;20057;-68
2021/10/02 09:39:18;;;;;;;7.05;2.78;;;23.60;98.20;;;;;;5010989;28;20132;-68
2021/10/02 09:41:52;;;;;;;6.47;2.17;;;25.20;96.90;;;;;;5010159;28;20096;-68
2021/10/02 09:44:24;;;;;;;5.40;2.63;;;24.40;97.50;;;;;;5010223;28;20058;-68
2021/10/02 09:46:52;;;;;;;5.30;2.28;;;25.30;96.40;;;;;;5008679;28;20529;-68
2021/10/02 09:49:19;;;;;;;6.07;2.63;;;24.60;95.40;;;;;;5008988;28;20510;-69
2021/10/02 09:51:46;;;;;;;5.97;2.67;;;25.10;95.50;;;;;;5009510;28;20490;-69
2021/10/02 09:54:34;;;;;;;5.25;2.20;;;25.30;96.10;;;;;;5009111;28;20103;-68
2021/10/02 09:57:12;;;;;;;7.28;2.70;;;25.70;95.70;;;;;;5008624;28;20462;-68
2021/10/02 09:59:39;;;;;;;6.55;2.40;;;26.40;95.00;;;;;;5009628;28;20049;-69
2021/10/02 10:02:13;;;;;;;5.25;2.35;;;25.20;94.90;;;;;;5009937;28;20472;-69
2021/10/02 10:04:49;;;;;;;9.07;3.22;;;25.20;96.00;;;;;;5009637;28;20041;-70
2021/10/02 10:07:16;;;;;;;5.65;1.98;;;26.00;95.00;;;;;;5012193;28;20096;-69
2021/10/02 10:09:43;;;;;;;5.07;2.50;;;26.50;93.80;;;;;;5009952;28;20045;-68
2021/10/02 10:12:11;;;;;;;5.00;2.10;;;26.80;93.20;;;;;;5009221;28;20111;-68
2021/10/02 10:14:38;;;;;;;6.45;2.20;;;26.00;93.70;;;;;;5009246;28;20072;-69
2021/10/02 10:17:08;;;;;;;6.38;2.55;;;25.90;93.70;;;;;;5010400;28;20050;-69
2021/10/02 10:19:35;;;;;;;7.15;2.38;;;25.10;94.20;;;;;;5013220;28;20406;-68
2021/10/02 10:22:08;;;;;;;7.97;2.40;;;24.30;94.90;;;;;;5012561;28;20041;-69
2021/10/02 10:24:37;;;;;;;4.88;2.40;;;25.20;94.30;;;;;;5008493;28;20081;-69
2021/10/02 10:27:04;;;;;;;4.82;2.30;;;26.10;93.80;;;;;;5008715;28;20045;-69
2021/10/02 10:29:41;;;;;;;5.60;2.15;;;26.00;93.30;;;;;;5013712;28;20119;-69
2021/10/02 10:32:09;;;;;;;5.25;2.15;;;25.90;93.10;;;;;;5014506;28;20137;-69
2021/10/02 10:34:39;;;;;;;7.25;2.58;;;25.20;93.70;;;;;;5012747;28;20130;-68
2021/10/02 10:37:06;;;;;;;4.85;2.25;;;25.60;94.60;;;;;;5009971;28;20122;-68
2021/10/02 10:39:34;;;;;;;5.30;2.47;;;26.00;92.90;;;;;;5013801;28;20073;-68
2021/10/02 10:42:03;;;;;;;6.47;2.40;;;25.50;93.60;;;;;;5013825;28;20045;-68
2021/10/02 10:44:32;;;;;;;5.38;2.15;;;26.10;93.40;;;;;;5011345;28;20168;-68
2021/10/02 10:47:00;;;;;;;4.80;2.25;;;27.70;92.50;;;;;;5013392;28;20659;-68
2021/10/02 10:49:27;;;;;;;7.57;2.65;;;27.00;91.70;;;;;;5010570;28;20459;-68
2021/10/02 10:51:59;;;;;;;6.63;2.35;;;27.00;92.20;;;;;;5011218;28;20089;-69
2021/10/02 10:54:26;;;;;;;4.25;2.20;;;29.40;90.90;;;;;;5011913;28;20509;-68
2021/10/02 10:56:54;;;;;;;4.70;2.60;;;29.20;90.80;;;;;;5012018;28;20077;-68
2021/10/02 10:59:22;;;;;;;6.47;2.58;;;29.90;88.30;;;;;;5008224;28;20045;-68
2021/10/02 11:01:50;;;;;;;4.95;2.35;;;29.00;90.00;;;;;;5008976;28;20064;-70
2021/10/02 11:04:39;;;;;;;5.07;2.58;;;27.20;91.70;;;;;;5009978;28;20049;-68
2021/10/02 11:07:06;;;;;;;5.35;2.20;;;28.60;91.10;;;;;;5009924;28;20053;-68
2021/10/02 11:09:38;;;;;;;5.20;2.40;;;28.40;91.30;;;;;;5014714;28;20049;-68
2021/10/02 11:12:07;;;;;;;6.53;2.90;;;29.40;89.10;;;;;;5015681;28;20517;-68
2021/10/02 11:15:02;;;;;;;5.57;2.53;;;29.30;90.40;;;;;;5012961;28;20296;-67
2021/10/02 11:17:47;;;;;;;5.82;2.78;;;26.60;91.50;;;;;;5010946;28;20092;-68
2021/10/02 11:20:33;;;;;;;7.30;2.88;;;28.80;91.00;;;;;;5011063;28;20111;-68
2021/10/02 11:23:50;;;;;;;6.60;2.80;;;29.30;88.70;;;;;;5009137;28;20061;-68
2021/10/02 11:26:21;;;;;;;7.85;2.78;;;28.90;90.00;;;;;;4944053;28;20508;-68
2021/10/02 11:28:51;;;;;;;7.30;2.85;;;29.40;91.20;;;;;;5004287;28;20128;-68
2021/10/02 11:31:20;;;;;;;7.25;3.30;;;30.00;88.00;;;;;;5006285;28;20058;-68
2021/10/02 11:33:48;;;;;;;9.80;3.00;;;29.20;87.50;;;;;;5008043;28;20053;-68
2021/10/02 11:36:46;;;;;;;5.25;2.63;;;28.20;90.50;;;;;;5006608;28;20057;-68
2021/10/02 11:39:19;;;;;;;7.32;3.22;;;28.70;90.20;;;;;;5007507;28;20064;-68
2021/10/02 11:41:49;;;;;;;9.20;3.05;;;28.20;90.20;;;;;;5009509;28;20080;-68
2021/10/02 11:44:23;;;;;;;7.25;2.63;;;29.00;88.40;;;;;;5011435;28;20597;-68
2021/10/02 11:46:56;;;;;;;7.75;3.53;;;29.20;88.20;;;;;;5013917;28;20058;-68
2021/10/02 11:49:23;;;;;;;15.77;3.42;;;28.90;90.10;;;;;;5014864;28;20049;-69
2021/10/02 11:52:11;;;;;;;8.57;3.03;;;30.20;87.90;;;;;;5010757;28;20119;-69
2021/10/02 11:54:39;;;;;;;9.20;2.85;;;30.00;87.50;;;;;;5010039;28;20084;-69
2021/10/02 11:57:12;;;;;;;7.18;2.60;;;29.50;88.90;;;;;;5010435;28;20111;-69
2021/10/02 11:59:43;;;;;;;10.40;3.08;;;27.60;91.00;;;;;;5011748;28;20107;-69
2021/10/02 12:02:11;;;;;;;5.28;2.70;;;27.70;90.40;;;;;;5011368;28;20463;-69
2021/10/02 12:04:39;;;;;;;9.13;3.30;;;28.90;90.00;;;;;;5012607;28;20050;-69
2021/10/02 12:07:07;;;;;;;7.60;2.70;;;28.60;88.90;;;;;;5011939;28;20075;-69
2021/10/02 12:09:35;;;;;;;6.00;3.20;;;27.60;90.40;;;;;;5011749;28;20135;-68
2021/10/02 12:12:03;;;;;;;7.68;2.58;;;27.20;90.90;;;;;;5013824;28;20396;-68
2021/10/02 12:14:31;;;;;;;6.38;2.95;;;27.30;90.50;;;;;;5012582;28;20137;-68
2021/10/02 12:17:00;;;;;;;5.18;2.88;;;27.30;90.70;;;;;;5011676;28;20081;-69
2021/10/02 12:19:28;;;;;;;5.22;2.53;;;28.60;90.40;;;;;;5010144;28;20057;-69
2021/10/02 12:21:57;;;;;;;5.00;2.67;;;28.80;88.50;;;;;;5011915;28;20077;-69
2021/10/02 12:24:27;;;;;;;4.60;2.55;;;27.90;90.40;;;;;;5011188;28;20067;-69
2021/10/02 12:26:58;;;;;;;7.10;2.83;;;26.80;90.60;;;;;;5012158;28;20081;-69
2021/10/02 12:29:30;;;;;;;5.65;2.80;;;26.70;91.20;;;;;;5012317;28;20094;-69
2021/10/02 12:32:03;;;;;;;6.65;2.42;;;28.70;90.40;;;;;;5012443;28;20159;-68
2021/10/02 12:34:33;;;;;;;5.78;2.53;;;28.20;88.70;;;;;;5011957;28;20215;-69
2021/10/02 12:37:02;;;;;;;5.07;2.50;;;26.50;90.70;;;;;;5011937;28;20080;-69
2021/10/02 12:39:33;;;;;;;5.20;2.60;;;25.20;91.70;;;;;;5012147;28;20077;-69
2021/10/02 12:42:02;;;;;;;6.15;2.85;;;26.60;91.50;;;;;;5012105;28;20604;-69
2021/10/02 12:44:31;;;;;;;8.00;3.35;;;27.00;90.40;;;;;;5011449;28;20546;-69
2021/10/02 12:47:00;;;;;;;7.47;3.00;;;26.70;90.80;;;;;;5011976;28;20131;-69
2021/10/02 12:49:28;;;;;;;5.22;2.45;;;26.10;91.20;;;;;;5011874;28;20049;-68
2021/10/02 12:51:56;;;;;;;6.35;2.90;;;25.20;92.50;;;;;;5010308;28;20049;-69
2021/10/02 12:54:26;;;;;;;6.45;2.60;;;25.60;92.70;;;;;;5011592;28;20088;-68
2021/10/02 12:56:58;;;;;;;6.70;2.90;;;25.50;91.90;;;;;;5008420;28;20069;-69
2021/10/02 12:59:36;;;;;;;8.50;3.42;;;25.70;91.50;;;;;;5008033;28;20072;-69
2021/10/02 13:02:03;;;;;;;7.10;3.03;;;25.60;91.60;;;;;;5010947;28;21039;-69
2021/10/02 13:04:33;;;;;;;8.50;2.83;;;25.60;91.30;;;;;;5010679;28;20081;-69
2021/10/02 13:07:00;;;;;;;8.23;2.60;;;24.90;92.30;;;;;;5013102;28;20601;-69
2021/10/02 13:09:27;;;;;;;7.50;2.60;;;26.00;91.00;;;;;;5015791;28;20088;-69
2021/10/02 13:11:55;;;;;;;5.38;2.42;;;25.20;92.40;;;;;;5012976;28;20077;-69
2021/10/02 13:14:46;;;;;;;6.63;2.83;;;25.30;91.80;;;;;;5013909;28;20832;-68
2021/10/02 13:17:14;;;;;;;6.18;2.90;;;25.60;92.30;;;;;;5014270;28;20470;-68
2021/10/02 13:19:41;;;;;;;4.78;2.80;;;25.40;92.20;;;;;;5014123;28;20049;-69
2021/10/02 13:22:13;;;;;;;6.28;3.03;;;25.30;92.40;;;;;;5014738;28;20604;-68
2021/10/02 13:25:00;;;;;;;5.50;2.63;;;25.20;92.50;;;;;;5013807;28;20089;-68
2021/10/02 13:27:30;;;;;;;6.40;3.55;;;24.80;93.60;;;;;;5014878;28;20521;-69
2021/10/02 13:30:06;;;;;;;7.68;3.25;;;24.50;93.20;;;;;;5015576;28;20057;-69
2021/10/02 13:32:33;;;;;;;6.75;3.03;;;25.00;93.30;;;;;;5015548;28;20073;-69
2021/10/02 13:35:04;;;;;;;9.13;3.15;;;26.90;92.50;;;;;;5014303;28;20045;-69
2021/10/02 13:37:32;;;;;;;5.03;2.72;;;27.30;91.50;;;;;;5015683;28;20085;-69
2021/10/02 13:40:02;;;;;;;6.97;3.05;;;27.00;92.00;;;;;;5016303;28;20481;-68
2021/10/02 13:42:29;;;;;;;7.32;3.35;;;26.60;92.40;;;;;;5016517;28;20065;-69
2021/10/02 13:44:57;;;;;;;6.75;2.78;;;25.80;92.50;;;;;;5016220;28;20060;-69
2021/10/02 13:47:27;;;;;;;6.40;3.15;;;25.80;92.60;;;;;;5015403;28;20136;-68